sensor_id;sensor_type;location;lat;lon;timestamp;P1;durP1;ratioP1;P2;durP2;ratioP2
73321;SDS011;61549;37.044;22.128;2022-12-18T00:00:46;10.45;;;2.33;;
73321;SDS011;61549;37.044;22.128;2022-12-18T00:03:14;15.45;;;2.40;;
73321;SDS011;61549;37.044;22.128;2022-12-18T00:05:49;8.15;;;2.17;;
73321;SDS011;61549;37.044;22.128;2022-12-18T00:08:16;12.93;;;2.20;;
73321;SDS011;61549;37.044;22.128;2022-12-18T00:10:43;9.00;;;2.00;;
73321;SDS011;61549;37.044;22.128;2022-12-18T00:13:10;11.85;;;2.45;;
73321;SDS011;61549;37.044;22.128;2022-12-18T00:15:38;11.30;;;2.22;;
73321;SDS011;61549;37.044;22.128;2022-12-18T00:18:04;7.10;;;1.88;;
73321;SDS011;61549;37.044;22.128;2022-12-18T00:20:31;13.63;;;2.30;;
73321;SDS011;61549;37.044;22.128;2022-12-18T00:23:00;11.23;;;2.33;;
73321;SDS011;61549;37.044;22.128;2022-12-18T00:25:26;14.07;;;2.63;;
73321;SDS011;61549;37.044;22.128;2022-12-18T00:27:52;11.45;;;2.25;;
73321;SDS011;61549;37.044;22.128;2022-12-18T00:30:18;12.13;;;2.45;;
73321;SDS011;61549;37.044;22.128;2022-12-18T00:32:44;8.80;;;2.05;;
73321;SDS011;61549;37.044;22.128;2022-12-18T00:35:12;9.50;;;1.75;;
73321;SDS011;61549;37.044;22.128;2022-12-18T00:37:38;12.13;;;2.30;;
73321;SDS011;61549;37.044;22.128;2022-12-18T00:40:04;10.43;;;2.13;;
73321;SDS011;61549;37.044;22.128;2022-12-18T00:42:30;13.25;;;2.30;;
73321;SDS011;61549;37.044;22.128;2022-12-18T00:45:14;9.18;;;2.10;;
73321;SDS011;61549;37.044;22.128;2022-12-18T00:47:40;12.65;;;2.42;;
73321;SDS011;61549;37.044;22.128;2022-12-18T00:50:06;10.57;;;1.85;;
73321;SDS011;61549;37.044;22.128;2022-12-18T00:52:32;8.63;;;1.95;;
73321;SDS011;61549;37.044;22.128;2022-12-18T00:54:58;11.55;;;2.13;;
73321;SDS011;61549;37.044;22.128;2022-12-18T00:57:24;15.20;;;2.35;;
73321;SDS011;61549;37.044;22.128;2022-12-18T00:59:50;9.07;;;2.13;;
73321;SDS011;61549;37.044;22.128;2022-12-18T01:02:16;9.48;;;1.88;;
73321;SDS011;61549;37.044;22.128;2022-12-18T01:04:42;12.00;;;2.05;;
73321;SDS011;61549;37.044;22.128;2022-12-18T01:07:08;11.30;;;1.90;;
73321;SDS011;61549;37.044;22.128;2022-12-18T01:09:33;11.20;;;2.05;;
73321;SDS011;61549;37.044;22.128;2022-12-18T01:11:59;10.27;;;2.00;;
73321;SDS011;61549;37.044;22.128;2022-12-18T01:14:25;7.43;;;1.80;;
73321;SDS011;61549;37.044;22.128;2022-12-18T01:16:52;8.95;;;1.83;;
73321;SDS011;61549;37.044;22.128;2022-12-18T01:19:17;9.07;;;1.75;;
73321;SDS011;61549;37.044;22.128;2022-12-18T01:21:43;7.63;;;2.05;;
73321;SDS011;61549;37.044;22.128;2022-12-18T01:24:10;11.20;;;2.05;;
73321;SDS011;61549;37.044;22.128;2022-12-18T01:26:37;12.45;;;2.33;;
73321;SDS011;61549;37.044;22.128;2022-12-18T01:29:03;9.60;;;1.90;;
73321;SDS011;61549;37.044;22.128;2022-12-18T01:31:32;10.05;;;2.20;;
73321;SDS011;61549;37.044;22.128;2022-12-18T01:34:02;8.48;;;1.90;;
73321;SDS011;61549;37.044;22.128;2022-12-18T01:36:30;14.23;;;2.15;;
73321;SDS011;61549;37.044;22.128;2022-12-18T01:39:03;10.43;;;2.67;;
73321;SDS011;61549;37.044;22.128;2022-12-18T01:41:33;9.27;;;1.95;;
73321;SDS011;61549;37.044;22.128;2022-12-18T01:50:09;12.35;;;2.05;;
73321;SDS011;61549;37.044;22.128;2022-12-18T01:52:42;7.78;;;2.08;;
73321;SDS011;61549;37.044;22.128;2022-12-18T01:55:10;9.00;;;2.03;;
73321;SDS011;61549;37.044;22.128;2022-12-18T01:57:37;7.60;;;1.80;;
73321;SDS011;61549;37.044;22.128;2022-12-18T02:00:09;10.10;;;2.17;;
73321;SDS011;61549;37.044;22.128;2022-12-18T02:02:43;9.93;;;2.22;;
73321;SDS011;61549;37.044;22.128;2022-12-18T02:05:10;11.57;;;2.40;;
73321;SDS011;61549;37.044;22.128;2022-12-18T02:10:30;9.32;;;1.95;;
73321;SDS011;61549;37.044;22.128;2022-12-18T02:13:08;9.63;;;1.83;;
73321;SDS011;61549;37.044;22.128;2022-12-18T02:18:45;11.60;;;2.10;;
73321;SDS011;61549;37.044;22.128;2022-12-18T02:24:06;11.63;;;2.15;;
73321;SDS011;61549;37.044;22.128;2022-12-18T02:29:26;12.90;;;2.05;;
73321;SDS011;61549;37.044;22.128;2022-12-18T02:32:06;6.45;;;1.58;;
73321;SDS011;61549;37.044;22.128;2022-12-18T02:34:38;11.57;;;1.80;;
73321;SDS011;61549;37.044;22.128;2022-12-18T02:37:07;6.90;;;1.52;;
73321;SDS011;61549;37.044;22.128;2022-12-18T02:39:37;8.52;;;2.20;;
73321;SDS011;61549;37.044;22.128;2022-12-18T02:42:05;7.75;;;1.90;;
73321;SDS011;61549;37.044;22.128;2022-12-18T02:44:35;11.15;;;2.03;;
73321;SDS011;61549;37.044;22.128;2022-12-18T02:47:14;11.30;;;2.00;;
73321;SDS011;61549;37.044;22.128;2022-12-18T02:52:21;11.50;;;2.10;;
73321;SDS011;61549;37.044;22.128;2022-12-18T02:55:00;8.45;;;1.73;;
73321;SDS011;61549;37.044;22.128;2022-12-18T02:57:53;10.82;;;2.35;;
73321;SDS011;61549;37.044;22.128;2022-12-18T03:01:07;11.90;;;2.38;;
73321;SDS011;61549;37.044;22.128;2022-12-18T03:03:39;10.02;;;1.65;;
73321;SDS011;61549;37.044;22.128;2022-12-18T03:06:26;10.88;;;2.00;;
73321;SDS011;61549;37.044;22.128;2022-12-18T03:08:59;12.65;;;1.88;;
73321;SDS011;61549;37.044;22.128;2022-12-18T03:11:29;11.50;;;2.17;;
73321;SDS011;61549;37.044;22.128;2022-12-18T03:14:18;9.00;;;2.30;;
73321;SDS011;61549;37.044;22.128;2022-12-18T03:16:48;13.25;;;1.92;;
73321;SDS011;61549;37.044;22.128;2022-12-18T03:19:18;11.38;;;2.05;;
73321;SDS011;61549;37.044;22.128;2022-12-18T03:21:49;7.28;;;1.98;;
73321;SDS011;61549;37.044;22.128;2022-12-18T03:24:19;8.32;;;1.52;;
73321;SDS011;61549;37.044;22.128;2022-12-18T03:26:47;12.52;;;1.90;;
73321;SDS011;61549;37.044;22.128;2022-12-18T03:29:19;9.52;;;1.80;;
73321;SDS011;61549;37.044;22.128;2022-12-18T03:31:56;7.93;;;1.80;;
73321;SDS011;61549;37.044;22.128;2022-12-18T03:34:36;8.43;;;1.92;;
73321;SDS011;61549;37.044;22.128;2022-12-18T03:37:06;14.32;;;2.10;;
73321;SDS011;61549;37.044;22.128;2022-12-18T03:39:33;12.30;;;2.13;;
73321;SDS011;61549;37.044;22.128;2022-12-18T03:44:51;9.43;;;2.08;;
73321;SDS011;61549;37.044;22.128;2022-12-18T03:47:30;8.15;;;1.88;;
73321;SDS011;61549;37.044;22.128;2022-12-18T03:50:14;9.55;;;1.90;;
73321;SDS011;61549;37.044;22.128;2022-12-18T03:55:48;12.13;;;2.00;;
73321;SDS011;61549;37.044;22.128;2022-12-18T03:58:16;6.05;;;1.60;;
73321;SDS011;61549;37.044;22.128;2022-12-18T04:00:45;9.43;;;1.80;;
73321;SDS011;61549;37.044;22.128;2022-12-18T04:03:13;12.18;;;2.28;;
73321;SDS011;61549;37.044;22.128;2022-12-18T04:05:40;11.02;;;2.70;;
73321;SDS011;61549;37.044;22.128;2022-12-18T04:08:07;8.20;;;2.30;;
73321;SDS011;61549;37.044;22.128;2022-12-18T04:10:33;7.22;;;2.30;;
73321;SDS011;61549;37.044;22.128;2022-12-18T04:13:00;8.00;;;2.00;;
73321;SDS011;61549;37.044;22.128;2022-12-18T04:15:26;10.77;;;2.63;;
73321;SDS011;61549;37.044;22.128;2022-12-18T04:17:52;11.57;;;2.05;;
73321;SDS011;61549;37.044;22.128;2022-12-18T04:20:19;9.32;;;1.63;;
73321;SDS011;61549;37.044;22.128;2022-12-18T04:22:45;10.05;;;2.53;;
73321;SDS011;61549;37.044;22.128;2022-12-18T04:25:12;14.32;;;3.25;;
73321;SDS011;61549;37.044;22.128;2022-12-18T04:27:39;12.55;;;2.25;;
73321;SDS011;61549;37.044;22.128;2022-12-18T04:30:06;12.20;;;1.80;;
73321;SDS011;61549;37.044;22.128;2022-12-18T04:32:33;10.60;;;2.03;;
73321;SDS011;61549;37.044;22.128;2022-12-18T04:34:59;9.45;;;1.95;;
73321;SDS011;61549;37.044;22.128;2022-12-18T04:37:25;9.43;;;2.00;;
73321;SDS011;61549;37.044;22.128;2022-12-18T04:39:51;6.05;;;1.60;;
73321;SDS011;61549;37.044;22.128;2022-12-18T04:42:17;7.40;;;1.60;;
73321;SDS011;61549;37.044;22.128;2022-12-18T04:44:44;11.90;;;2.35;;
73321;SDS011;61549;37.044;22.128;2022-12-18T04:47:09;11.15;;;1.70;;
73321;SDS011;61549;37.044;22.128;2022-12-18T04:49:35;8.65;;;1.60;;
73321;SDS011;61549;37.044;22.128;2022-12-18T04:52:01;10.38;;;2.22;;
73321;SDS011;61549;37.044;22.128;2022-12-18T04:54:27;12.07;;;1.85;;
73321;SDS011;61549;37.044;22.128;2022-12-18T04:56:53;10.02;;;2.10;;
73321;SDS011;61549;37.044;22.128;2022-12-18T04:59:19;10.43;;;1.80;;
73321;SDS011;61549;37.044;22.128;2022-12-18T05:01:45;8.45;;;1.85;;
73321;SDS011;61549;37.044;22.128;2022-12-18T05:04:10;11.85;;;2.00;;
73321;SDS011;61549;37.044;22.128;2022-12-18T05:06:36;11.00;;;2.08;;
73321;SDS011;61549;37.044;22.128;2022-12-18T05:09:02;12.32;;;2.15;;
73321;SDS011;61549;37.044;22.128;2022-12-18T05:11:28;13.75;;;2.03;;
73321;SDS011;61549;37.044;22.128;2022-12-18T05:13:54;8.23;;;1.70;;
73321;SDS011;61549;37.044;22.128;2022-12-18T05:16:20;9.93;;;2.13;;
73321;SDS011;61549;37.044;22.128;2022-12-18T05:18:46;11.10;;;1.85;;
73321;SDS011;61549;37.044;22.128;2022-12-18T05:21:12;11.75;;;2.38;;
73321;SDS011;61549;37.044;22.128;2022-12-18T05:23:37;9.48;;;2.00;;
73321;SDS011;61549;37.044;22.128;2022-12-18T05:26:04;9.35;;;2.05;;
73321;SDS011;61549;37.044;22.128;2022-12-18T05:28:31;7.40;;;1.77;;
73321;SDS011;61549;37.044;22.128;2022-12-18T05:30:59;9.40;;;2.22;;
73321;SDS011;61549;37.044;22.128;2022-12-18T05:33:28;9.30;;;2.13;;
73321;SDS011;61549;37.044;22.128;2022-12-18T05:35:57;9.70;;;1.90;;
73321;SDS011;61549;37.044;22.128;2022-12-18T05:38:27;10.30;;;2.35;;
73321;SDS011;61549;37.044;22.128;2022-12-18T05:40:54;8.60;;;1.90;;
73321;SDS011;61549;37.044;22.128;2022-12-18T05:43:20;9.52;;;2.20;;
73321;SDS011;61549;37.044;22.128;2022-12-18T05:46:01;9.35;;;2.63;;
73321;SDS011;61549;37.044;22.128;2022-12-18T05:48:37;9.07;;;2.28;;
73321;SDS011;61549;37.044;22.128;2022-12-18T05:51:04;10.38;;;3.20;;
73321;SDS011;61549;37.044;22.128;2022-12-18T05:53:36;12.48;;;3.00;;
73321;SDS011;61549;37.044;22.128;2022-12-18T05:56:03;11.82;;;2.90;;
73321;SDS011;61549;37.044;22.128;2022-12-18T05:58:31;13.45;;;3.10;;
73321;SDS011;61549;37.044;22.128;2022-12-18T06:01:05;15.90;;;2.65;;
73321;SDS011;61549;37.044;22.128;2022-12-18T06:03:32;10.30;;;2.70;;
73321;SDS011;61549;37.044;22.128;2022-12-18T06:05:58;9.18;;;2.30;;
73321;SDS011;61549;37.044;22.128;2022-12-18T06:08:24;15.65;;;4.93;;
73321;SDS011;61549;37.044;22.128;2022-12-18T06:10:53;15.38;;;4.78;;
73321;SDS011;61549;37.044;22.128;2022-12-18T06:13:20;15.45;;;4.78;;
73321;SDS011;61549;37.044;22.128;2022-12-18T06:15:46;10.05;;;3.70;;
73321;SDS011;61549;37.044;22.128;2022-12-18T06:18:12;12.23;;;4.75;;
73321;SDS011;61549;37.044;22.128;2022-12-18T06:20:38;14.80;;;5.25;;
73321;SDS011;61549;37.044;22.128;2022-12-18T06:23:06;14.65;;;4.72;;
73321;SDS011;61549;37.044;22.128;2022-12-18T06:25:36;19.17;;;8.07;;
73321;SDS011;61549;37.044;22.128;2022-12-18T06:28:03;12.73;;;4.07;;
73321;SDS011;61549;37.044;22.128;2022-12-18T06:30:29;12.25;;;2.63;;
73321;SDS011;61549;37.044;22.128;2022-12-18T06:32:55;8.77;;;2.10;;
73321;SDS011;61549;37.044;22.128;2022-12-18T06:35:21;7.30;;;1.90;;
73321;SDS011;61549;37.044;22.128;2022-12-18T06:37:47;9.50;;;2.03;;
73321;SDS011;61549;37.044;22.128;2022-12-18T06:40:13;8.25;;;2.10;;
73321;SDS011;61549;37.044;22.128;2022-12-18T06:42:39;11.50;;;2.70;;
73321;SDS011;61549;37.044;22.128;2022-12-18T06:45:05;9.88;;;2.40;;
73321;SDS011;61549;37.044;22.128;2022-12-18T06:47:32;13.10;;;3.90;;
73321;SDS011;61549;37.044;22.128;2022-12-18T06:49:57;13.95;;;5.82;;
73321;SDS011;61549;37.044;22.128;2022-12-18T06:52:23;10.32;;;3.78;;
73321;SDS011;61549;37.044;22.128;2022-12-18T06:54:49;7.63;;;2.10;;
73321;SDS011;61549;37.044;22.128;2022-12-18T06:57:15;11.98;;;2.58;;
73321;SDS011;61549;37.044;22.128;2022-12-18T06:59:41;11.98;;;2.75;;
73321;SDS011;61549;37.044;22.128;2022-12-18T07:02:10;11.00;;;2.20;;
73321;SDS011;61549;37.044;22.128;2022-12-18T07:04:37;11.70;;;3.10;;
73321;SDS011;61549;37.044;22.128;2022-12-18T07:07:03;9.45;;;2.45;;
73321;SDS011;61549;37.044;22.128;2022-12-18T07:09:29;11.68;;;2.38;;
73321;SDS011;61549;37.044;22.128;2022-12-18T07:11:55;10.07;;;3.00;;
73321;SDS011;61549;37.044;22.128;2022-12-18T07:14:21;14.23;;;5.32;;
73321;SDS011;61549;37.044;22.128;2022-12-18T07:16:46;22.83;;;8.85;;
73321;SDS011;61549;37.044;22.128;2022-12-18T07:19:12;32.30;;;12.65;;
73321;SDS011;61549;37.044;22.128;2022-12-18T07:21:38;17.90;;;8.05;;
73321;SDS011;61549;37.044;22.128;2022-12-18T07:24:04;15.70;;;6.85;;
73321;SDS011;61549;37.044;22.128;2022-12-18T07:26:30;17.33;;;5.30;;
73321;SDS011;61549;37.044;22.128;2022-12-18T07:28:57;13.30;;;3.72;;
73321;SDS011;61549;37.044;22.128;2022-12-18T07:31:23;11.68;;;3.28;;
73321;SDS011;61549;37.044;22.128;2022-12-18T07:33:50;14.77;;;2.90;;
73321;SDS011;61549;37.044;22.128;2022-12-18T07:36:16;9.90;;;2.50;;
73321;SDS011;61549;37.044;22.128;2022-12-18T07:38:43;11.23;;;2.33;;
73321;SDS011;61549;37.044;22.128;2022-12-18T07:41:13;12.20;;;2.60;;
73321;SDS011;61549;37.044;22.128;2022-12-18T07:43:39;9.82;;;2.40;;
73321;SDS011;61549;37.044;22.128;2022-12-18T07:46:06;7.47;;;2.00;;
73321;SDS011;61549;37.044;22.128;2022-12-18T07:48:42;8.88;;;2.25;;
73321;SDS011;61549;37.044;22.128;2022-12-18T07:51:08;11.63;;;1.80;;
73321;SDS011;61549;37.044;22.128;2022-12-18T07:53:37;9.98;;;2.00;;
73321;SDS011;61549;37.044;22.128;2022-12-18T07:56:05;9.68;;;2.17;;
73321;SDS011;61549;37.044;22.128;2022-12-18T07:58:33;8.05;;;2.10;;
73321;SDS011;61549;37.044;22.128;2022-12-18T08:01:05;9.40;;;2.78;;
73321;SDS011;61549;37.044;22.128;2022-12-18T08:03:32;12.30;;;2.63;;
73321;SDS011;61549;37.044;22.128;2022-12-18T08:06:02;12.05;;;2.20;;
73321;SDS011;61549;37.044;22.128;2022-12-18T08:08:29;41.47;;;4.97;;
73321;SDS011;61549;37.044;22.128;2022-12-18T08:10:56;14.05;;;3.30;;
73321;SDS011;61549;37.044;22.128;2022-12-18T08:13:22;10.00;;;2.03;;
73321;SDS011;61549;37.044;22.128;2022-12-18T08:15:59;12.25;;;2.70;;
73321;SDS011;61549;37.044;22.128;2022-12-18T08:18:27;9.07;;;2.03;;
73321;SDS011;61549;37.044;22.128;2022-12-18T08:20:53;12.18;;;2.40;;
73321;SDS011;61549;37.044;22.128;2022-12-18T08:23:20;17.13;;;6.60;;
73321;SDS011;61549;37.044;22.128;2022-12-18T08:25:46;17.58;;;6.45;;
73321;SDS011;61549;37.044;22.128;2022-12-18T08:28:12;13.15;;;4.13;;
73321;SDS011;61549;37.044;22.128;2022-12-18T08:30:38;12.50;;;2.95;;
73321;SDS011;61549;37.044;22.128;2022-12-18T08:33:04;16.10;;;4.72;;
73321;SDS011;61549;37.044;22.128;2022-12-18T08:35:30;10.82;;;3.53;;
73321;SDS011;61549;37.044;22.128;2022-12-18T08:38:00;13.25;;;3.28;;
73321;SDS011;61549;37.044;22.128;2022-12-18T08:40:26;11.48;;;3.50;;
73321;SDS011;61549;37.044;22.128;2022-12-18T08:42:52;15.75;;;5.07;;
73321;SDS011;61549;37.044;22.128;2022-12-18T08:45:36;13.52;;;4.65;;
73321;SDS011;61549;37.044;22.128;2022-12-18T08:48:02;15.25;;;8.07;;
73321;SDS011;61549;37.044;22.128;2022-12-18T08:50:28;19.00;;;8.15;;
73321;SDS011;61549;37.044;22.128;2022-12-18T08:52:54;19.10;;;7.97;;
73321;SDS011;61549;37.044;22.128;2022-12-18T08:55:20;18.20;;;8.43;;
73321;SDS011;61549;37.044;22.128;2022-12-18T08:57:49;19.02;;;9.20;;
73321;SDS011;61549;37.044;22.128;2022-12-18T09:00:15;18.83;;;9.73;;
73321;SDS011;61549;37.044;22.128;2022-12-18T09:02:41;19.30;;;8.20;;
73321;SDS011;61549;37.044;22.128;2022-12-18T09:05:07;16.25;;;7.30;;
73321;SDS011;61549;37.044;22.128;2022-12-18T09:07:33;17.70;;;7.35;;
73321;SDS011;61549;37.044;22.128;2022-12-18T09:10:03;15.68;;;7.13;;
73321;SDS011;61549;37.044;22.128;2022-12-18T09:12:30;13.48;;;6.32;;
73321;SDS011;61549;37.044;22.128;2022-12-18T09:14:56;18.17;;;6.95;;
73321;SDS011;61549;37.044;22.128;2022-12-18T09:17:22;12.25;;;6.03;;
73321;SDS011;61549;37.044;22.128;2022-12-18T09:19:48;12.95;;;6.60;;
73321;SDS011;61549;37.044;22.128;2022-12-18T09:22:14;17.17;;;6.40;;
73321;SDS011;61549;37.044;22.128;2022-12-18T09:24:40;15.10;;;6.22;;
73321;SDS011;61549;37.044;22.128;2022-12-18T09:27:06;18.40;;;6.18;;
73321;SDS011;61549;37.044;22.128;2022-12-18T09:29:32;16.85;;;6.63;;
73321;SDS011;61549;37.044;22.128;2022-12-18T09:31:58;16.05;;;6.55;;
73321;SDS011;61549;37.044;22.128;2022-12-18T09:34:24;19.52;;;6.35;;
73321;SDS011;61549;37.044;22.128;2022-12-18T09:36:50;17.33;;;6.60;;
73321;SDS011;61549;37.044;22.128;2022-12-18T09:39:16;15.73;;;6.43;;
73321;SDS011;61549;37.044;22.128;2022-12-18T09:44:22;15.05;;;5.57;;
73321;SDS011;61549;37.044;22.128;2022-12-18T09:47:18;15.48;;;6.38;;
73321;SDS011;61549;37.044;22.128;2022-12-18T09:49:55;15.98;;;7.10;;
73321;SDS011;61549;37.044;22.128;2022-12-18T09:52:35;19.70;;;7.78;;
73321;SDS011;61549;37.044;22.128;2022-12-18T09:57:58;16.50;;;6.95;;
73321;SDS011;61549;37.044;22.128;2022-12-18T10:00:29;12.05;;;5.05;;
73321;SDS011;61549;37.044;22.128;2022-12-18T10:03:16;12.55;;;4.32;;
73321;SDS011;61549;37.044;22.128;2022-12-18T10:19:18;11.65;;;2.83;;
73321;SDS011;61549;37.044;22.128;2022-12-18T10:22:02;15.88;;;3.00;;
73321;SDS011;61549;37.044;22.128;2022-12-18T10:27:30;13.27;;;4.03;;
73321;SDS011;61549;37.044;22.128;2022-12-18T10:29:56;13.32;;;3.42;;
73321;SDS011;61549;37.044;22.128;2022-12-18T10:32:27;12.77;;;2.92;;
73321;SDS011;61549;37.044;22.128;2022-12-18T10:34:55;8.98;;;2.20;;
73321;SDS011;61549;37.044;22.128;2022-12-18T10:37:25;11.85;;;3.08;;
73321;SDS011;61549;37.044;22.128;2022-12-18T10:40:07;9.75;;;3.28;;
73321;SDS011;61549;37.044;22.128;2022-12-18T10:42:36;13.73;;;2.22;;
73321;SDS011;61549;37.044;22.128;2022-12-18T10:45:24;15.23;;;2.70;;
73321;SDS011;61549;37.044;22.128;2022-12-18T10:47:49;10.75;;;2.33;;
73321;SDS011;61549;37.044;22.128;2022-12-18T10:50:18;12.98;;;3.20;;
73321;SDS011;61549;37.044;22.128;2022-12-18T10:52:59;11.40;;;2.67;;
73321;SDS011;61549;37.044;22.128;2022-12-18T10:55:27;16.30;;;3.00;;
73321;SDS011;61549;37.044;22.128;2022-12-18T10:58:30;11.35;;;2.70;;
73321;SDS011;61549;37.044;22.128;2022-12-18T11:01:03;10.48;;;3.05;;
73321;SDS011;61549;37.044;22.128;2022-12-18T11:03:36;11.55;;;3.03;;
73321;SDS011;61549;37.044;22.128;2022-12-18T11:06:13;13.80;;;3.35;;
73321;SDS011;61549;37.044;22.128;2022-12-18T11:08:41;12.73;;;3.38;;
73321;SDS011;61549;37.044;22.128;2022-12-18T11:11:42;13.73;;;3.35;;
73321;SDS011;61549;37.044;22.128;2022-12-18T11:16:37;15.98;;;3.35;;
73321;SDS011;61549;37.044;22.128;2022-12-18T11:22:01;14.80;;;3.97;;
73321;SDS011;61549;37.044;22.128;2022-12-18T11:24:49;11.85;;;2.97;;
73321;SDS011;61549;37.044;22.128;2022-12-18T11:27:38;9.80;;;2.67;;
73321;SDS011;61549;37.044;22.128;2022-12-18T11:33:05;12.63;;;2.70;;
73321;SDS011;61549;37.044;22.128;2022-12-18T11:35:45;13.50;;;2.95;;
73321;SDS011;61549;37.044;22.128;2022-12-18T11:38:20;10.60;;;2.60;;
73321;SDS011;61549;37.044;22.128;2022-12-18T11:40:55;11.23;;;2.40;;
73321;SDS011;61549;37.044;22.128;2022-12-18T11:43:42;10.70;;;2.42;;
73321;SDS011;61549;37.044;22.128;2022-12-18T11:46:34;11.43;;;2.42;;
73321;SDS011;61549;37.044;22.128;2022-12-18T11:49:12;10.13;;;2.53;;
73321;SDS011;61549;37.044;22.128;2022-12-18T11:51:58;10.40;;;2.30;;
73321;SDS011;61549;37.044;22.128;2022-12-18T11:54:31;13.35;;;3.00;;
73321;SDS011;61549;37.044;22.128;2022-12-18T12:00:07;13.57;;;3.03;;
73321;SDS011;61549;37.044;22.128;2022-12-18T12:10:43;13.85;;;3.45;;
73321;SDS011;61549;37.044;22.128;2022-12-18T12:13:30;11.13;;;3.60;;
73321;SDS011;61549;37.044;22.128;2022-12-18T12:21:21;15.10;;;4.05;;
73321;SDS011;61549;37.044;22.128;2022-12-18T12:26:27;11.68;;;4.63;;
73321;SDS011;61549;37.044;22.128;2022-12-18T12:32:05;11.30;;;3.80;;
73321;SDS011;61549;37.044;22.128;2022-12-18T12:40:05;13.23;;;4.15;;
73321;SDS011;61549;37.044;22.128;2022-12-18T12:45:17;13.95;;;3.85;;
73321;SDS011;61549;37.044;22.128;2022-12-18T12:47:58;12.70;;;3.53;;
73321;SDS011;61549;37.044;22.128;2022-12-18T12:50:26;12.43;;;3.83;;
73321;SDS011;61549;37.044;22.128;2022-12-18T12:52:54;12.23;;;3.17;;
73321;SDS011;61549;37.044;22.128;2022-12-18T12:55:22;10.57;;;3.63;;
73321;SDS011;61549;37.044;22.128;2022-12-18T12:57:56;14.30;;;4.03;;
73321;SDS011;61549;37.044;22.128;2022-12-18T13:00:52;15.02;;;3.88;;
73321;SDS011;61549;37.044;22.128;2022-12-18T13:03:55;13.32;;;3.92;;
73321;SDS011;61549;37.044;22.128;2022-12-18T13:09:18;10.80;;;3.08;;
73321;SDS011;61549;37.044;22.128;2022-12-18T13:11:45;16.70;;;3.55;;
73321;SDS011;61549;37.044;22.128;2022-12-18T13:14:31;14.23;;;3.45;;
73321;SDS011;61549;37.044;22.128;2022-12-18T13:20:07;14.30;;;4.10;;
73321;SDS011;61549;37.044;22.128;2022-12-18T13:22:37;15.48;;;3.78;;
73321;SDS011;61549;37.044;22.128;2022-12-18T13:28:10;10.68;;;3.72;;
73321;SDS011;61549;37.044;22.128;2022-12-18T13:38:42;17.65;;;5.38;;
73321;SDS011;61549;37.044;22.128;2022-12-18T13:41:30;14.65;;;4.45;;
73321;SDS011;61549;37.044;22.128;2022-12-18T13:43:55;13.95;;;4.50;;
73321;SDS011;61549;37.044;22.128;2022-12-18T13:46:48;16.17;;;6.32;;
73321;SDS011;61549;37.044;22.128;2022-12-18T13:49:21;13.63;;;4.60;;
73321;SDS011;61549;37.044;22.128;2022-12-18T13:51:51;16.33;;;5.20;;
73321;SDS011;61549;37.044;22.128;2022-12-18T13:56:55;24.55;;;12.30;;
73321;SDS011;61549;37.044;22.128;2022-12-18T13:59:25;47.55;;;26.50;;
73321;SDS011;61549;37.044;22.128;2022-12-18T14:02:19;37.35;;;20.65;;
73321;SDS011;61549;37.044;22.128;2022-12-18T14:04:48;27.73;;;12.20;;
73321;SDS011;61549;37.044;22.128;2022-12-18T14:07:24;37.53;;;19.45;;
73321;SDS011;61549;37.044;22.128;2022-12-18T14:09:53;50.15;;;26.13;;
73321;SDS011;61549;37.044;22.128;2022-12-18T14:12:26;78.60;;;48.70;;
73321;SDS011;61549;37.044;22.128;2022-12-18T14:15:23;61.92;;;39.47;;
73321;SDS011;61549;37.044;22.128;2022-12-18T14:18:00;31.13;;;17.90;;
73321;SDS011;61549;37.044;22.128;2022-12-18T14:20:33;18.60;;;5.47;;
73321;SDS011;61549;37.044;22.128;2022-12-18T14:22:59;20.45;;;4.85;;
73321;SDS011;61549;37.044;22.128;2022-12-18T14:25:27;16.38;;;4.80;;
73321;SDS011;61549;37.044;22.128;2022-12-18T14:30:32;16.58;;;5.07;;
73321;SDS011;61549;37.044;22.128;2022-12-18T14:33:10;21.30;;;5.80;;
73321;SDS011;61549;37.044;22.128;2022-12-18T14:35:57;18.60;;;4.30;;
73321;SDS011;61549;37.044;22.128;2022-12-18T14:38:32;11.38;;;3.30;;
73321;SDS011;61549;37.044;22.128;2022-12-18T14:41:00;20.88;;;6.78;;
73321;SDS011;61549;37.044;22.128;2022-12-18T14:43:32;16.88;;;4.85;;
73321;SDS011;61549;37.044;22.128;2022-12-18T14:45:59;21.25;;;8.73;;
73321;SDS011;61549;37.044;22.128;2022-12-18T14:48:40;17.98;;;7.38;;
73321;SDS011;61549;37.044;22.128;2022-12-18T14:53:40;20.42;;;8.07;;
73321;SDS011;61549;37.044;22.128;2022-12-18T14:56:25;21.70;;;6.10;;
73321;SDS011;61549;37.044;22.128;2022-12-18T14:58:54;17.98;;;6.03;;
73321;SDS011;61549;37.044;22.128;2022-12-18T15:02:09;18.00;;;6.20;;
73321;SDS011;61549;37.044;22.128;2022-12-18T15:04:34;16.40;;;6.93;;
73321;SDS011;61549;37.044;22.128;2022-12-18T15:07:05;22.48;;;8.27;;
73321;SDS011;61549;37.044;22.128;2022-12-18T15:09:35;22.85;;;8.95;;
73321;SDS011;61549;37.044;22.128;2022-12-18T15:12:01;21.48;;;9.55;;
73321;SDS011;61549;37.044;22.128;2022-12-18T15:17:03;23.35;;;9.07;;
73321;SDS011;61549;37.044;22.128;2022-12-18T15:19:39;27.42;;;10.50;;
73321;SDS011;61549;37.044;22.128;2022-12-18T15:24:50;27.88;;;12.40;;
73321;SDS011;61549;37.044;22.128;2022-12-18T15:27:22;27.35;;;11.35;;
73321;SDS011;61549;37.044;22.128;2022-12-18T15:32:43;28.83;;;12.50;;
73321;SDS011;61549;37.044;22.128;2022-12-18T15:35:23;29.80;;;13.68;;
73321;SDS011;61549;37.044;22.128;2022-12-18T15:37:50;24.50;;;12.10;;
73321;SDS011;61549;37.044;22.128;2022-12-18T15:40:21;26.98;;;11.95;;
73321;SDS011;61549;37.044;22.128;2022-12-18T15:42:50;27.92;;;12.07;;
73321;SDS011;61549;37.044;22.128;2022-12-18T15:45:37;24.98;;;12.13;;
73321;SDS011;61549;37.044;22.128;2022-12-18T15:48:08;29.58;;;13.13;;
73321;SDS011;61549;37.044;22.128;2022-12-18T15:50:48;27.77;;;13.17;;
73321;SDS011;61549;37.044;22.128;2022-12-18T15:53:18;26.63;;;12.63;;
73321;SDS011;61549;37.044;22.128;2022-12-18T15:55:44;31.88;;;13.88;;
73321;SDS011;61549;37.044;22.128;2022-12-18T15:58:29;32.83;;;17.42;;
73321;SDS011;61549;37.044;22.128;2022-12-18T16:00:55;25.25;;;15.32;;
73321;SDS011;61549;37.044;22.128;2022-12-18T16:03:23;35.58;;;19.52;;
73321;SDS011;61549;37.044;22.128;2022-12-18T16:05:48;37.17;;;22.02;;
73321;SDS011;61549;37.044;22.128;2022-12-18T16:08:14;40.25;;;23.77;;
73321;SDS011;61549;37.044;22.128;2022-12-18T16:10:40;33.35;;;17.67;;
73321;SDS011;61549;37.044;22.128;2022-12-18T16:13:09;32.58;;;17.50;;
73321;SDS011;61549;37.044;22.128;2022-12-18T16:15:36;31.20;;;17.48;;
73321;SDS011;61549;37.044;22.128;2022-12-18T16:18:02;33.25;;;16.83;;
73321;SDS011;61549;37.044;22.128;2022-12-18T16:20:28;37.33;;;23.17;;
73321;SDS011;61549;37.044;22.128;2022-12-18T16:22:54;43.72;;;25.73;;
73321;SDS011;61549;37.044;22.128;2022-12-18T16:25:21;27.98;;;18.55;;
73321;SDS011;61549;37.044;22.128;2022-12-18T16:27:56;31.80;;;16.85;;
73321;SDS011;61549;37.044;22.128;2022-12-18T16:30:26;23.67;;;12.27;;
73321;SDS011;61549;37.044;22.128;2022-12-18T16:32:54;26.13;;;13.18;;
73321;SDS011;61549;37.044;22.128;2022-12-18T16:35:20;29.25;;;12.75;;
73321;SDS011;61549;37.044;22.128;2022-12-18T16:37:46;25.23;;;12.93;;
73321;SDS011;61549;37.044;22.128;2022-12-18T16:40:14;25.08;;;12.32;;
73321;SDS011;61549;37.044;22.128;2022-12-18T16:42:41;22.83;;;12.00;;